sensor_id;sensor_type;location;lat;lon;timestamp;P1;durP1;ratioP1;P2;durP2;ratioP2
52368;SDS011;38298;50.346;3.526;2022-11-15T00:00:00;27.33;;;14.98;;
52368;SDS011;38298;50.346;3.526;2022-11-15T00:02:26;28.00;;;14.40;;
52368;SDS011;38298;50.346;3.526;2022-11-15T00:04:52;27.13;;;14.60;;
52368;SDS011;38298;50.346;3.526;2022-11-15T00:07:18;26.98;;;15.02;;
52368;SDS011;38298;50.346;3.526;2022-11-15T00:09:44;26.65;;;14.90;;
52368;SDS011;38298;50.346;3.526;2022-11-15T00:12:10;31.30;;;15.70;;
52368;SDS011;38298;50.346;3.526;2022-11-15T00:14:36;28.75;;;15.32;;
52368;SDS011;38298;50.346;3.526;2022-11-15T00:17:02;30.05;;;15.40;;
52368;SDS011;38298;50.346;3.526;2022-11-15T00:19:28;27.10;;;15.55;;
52368;SDS011;38298;50.346;3.526;2022-11-15T00:21:54;29.65;;;15.02;;
52368;SDS011;38298;50.346;3.526;2022-11-15T00:24:20;32.75;;;15.60;;
52368;SDS011;38298;50.346;3.526;2022-11-15T00:26:46;32.17;;;15.32;;
52368;SDS011;38298;50.346;3.526;2022-11-15T00:29:12;26.65;;;14.13;;
52368;SDS011;38298;50.346;3.526;2022-11-15T00:31:38;33.42;;;15.40;;
52368;SDS011;38298;50.346;3.526;2022-11-15T00:34:04;32.13;;;14.90;;
52368;SDS011;38298;50.346;3.526;2022-11-15T00:36:32;24.25;;;13.13;;
52368;SDS011;38298;50.346;3.526;2022-11-15T00:38:59;28.58;;;13.88;;
52368;SDS011;38298;50.346;3.526;2022-11-15T00:41:25;26.67;;;12.95;;
52368;SDS011;38298;50.346;3.526;2022-11-15T00:43:51;29.95;;;12.88;;
52368;SDS011;38298;50.346;3.526;2022-11-15T00:46:17;20.08;;;11.35;;
52368;SDS011;38298;50.346;3.526;2022-11-15T00:48:43;19.75;;;11.35;;
52368;SDS011;38298;50.346;3.526;2022-11-15T00:51:09;18.67;;;10.60;;
52368;SDS011;38298;50.346;3.526;2022-11-15T00:53:35;17.58;;;10.07;;
52368;SDS011;38298;50.346;3.526;2022-11-15T00:56:01;18.63;;;10.02;;
52368;SDS011;38298;50.346;3.526;2022-11-15T00:58:27;17.70;;;9.15;;
52368;SDS011;38298;50.346;3.526;2022-11-15T01:00:53;16.92;;;9.02;;
52368;SDS011;38298;50.346;3.526;2022-11-15T01:03:19;17.52;;;7.32;;
52368;SDS011;38298;50.346;3.526;2022-11-15T01:05:45;12.82;;;6.85;;
52368;SDS011;38298;50.346;3.526;2022-11-15T01:08:12;10.10;;;5.82;;
52368;SDS011;38298;50.346;3.526;2022-11-15T01:10:38;18.70;;;5.88;;
52368;SDS011;38298;50.346;3.526;2022-11-15T01:13:04;10.15;;;5.72;;
52368;SDS011;38298;50.346;3.526;2022-11-15T01:15:30;9.23;;;5.07;;
52368;SDS011;38298;50.346;3.526;2022-11-15T01:17:56;13.77;;;5.25;;
52368;SDS011;38298;50.346;3.526;2022-11-15T01:20:22;10.73;;;5.03;;
52368;SDS011;38298;50.346;3.526;2022-11-15T01:22:48;14.32;;;6.20;;
52368;SDS011;38298;50.346;3.526;2022-11-15T01:25:14;12.65;;;6.00;;
52368;SDS011;38298;50.346;3.526;2022-11-15T01:27:40;10.85;;;6.38;;
52368;SDS011;38298;50.346;3.526;2022-11-15T01:30:07;14.35;;;6.97;;
52368;SDS011;38298;50.346;3.526;2022-11-15T01:32:33;12.98;;;6.65;;
52368;SDS011;38298;50.346;3.526;2022-11-15T01:34:59;13.55;;;6.70;;
52368;SDS011;38298;50.346;3.526;2022-11-15T01:37:25;12.38;;;6.53;;
52368;SDS011;38298;50.346;3.526;2022-11-15T01:39:51;11.18;;;6.32;;
52368;SDS011;38298;50.346;3.526;2022-11-15T01:42:17;10.20;;;5.50;;
52368;SDS011;38298;50.346;3.526;2022-11-15T01:44:45;11.07;;;5.53;;
52368;SDS011;38298;50.346;3.526;2022-11-15T01:47:13;7.65;;;5.07;;
52368;SDS011;38298;50.346;3.526;2022-11-15T01:49:45;10.98;;;5.10;;
52368;SDS011;38298;50.346;3.526;2022-11-15T01:52:13;7.72;;;4.38;;
52368;SDS011;38298;50.346;3.526;2022-11-15T01:54:39;7.50;;;4.10;;
52368;SDS011;38298;50.346;3.526;2022-11-15T01:57:09;7.70;;;3.60;;
52368;SDS011;38298;50.346;3.526;2022-11-15T01:59:37;6.70;;;3.53;;
52368;SDS011;38298;50.346;3.526;2022-11-15T02:02:03;5.65;;;3.45;;
52368;SDS011;38298;50.346;3.526;2022-11-15T02:04:33;5.18;;;3.67;;
52368;SDS011;38298;50.346;3.526;2022-11-15T02:06:59;11.73;;;4.03;;
52368;SDS011;38298;50.346;3.526;2022-11-15T02:09:27;10.23;;;4.18;;
52368;SDS011;38298;50.346;3.526;2022-11-15T02:11:53;10.23;;;3.65;;
52368;SDS011;38298;50.346;3.526;2022-11-15T02:14:20;6.93;;;3.78;;
52368;SDS011;38298;50.346;3.526;2022-11-15T02:17:22;6.05;;;3.42;;
52368;SDS011;38298;50.346;3.526;2022-11-15T02:32:18;10.02;;;3.42;;
52368;SDS011;38298;50.346;3.526;2022-11-15T02:34:50;5.95;;;3.13;;
52368;SDS011;38298;50.346;3.526;2022-11-15T02:42:38;7.87;;;2.93;;
52368;SDS011;38298;50.346;3.526;2022-11-15T02:45:28;6.05;;;2.60;;
52368;SDS011;38298;50.346;3.526;2022-11-15T02:47:56;6.85;;;2.58;;
52368;SDS011;38298;50.346;3.526;2022-11-15T02:50:25;10.10;;;2.72;;
52368;SDS011;38298;50.346;3.526;2022-11-15T02:52:52;2.75;;;2.50;;
52368;SDS011;38298;50.346;3.526;2022-11-15T02:55:26;6.75;;;2.85;;
52368;SDS011;38298;50.346;3.526;2022-11-15T02:57:57;11.73;;;2.58;;
52368;SDS011;38298;50.346;3.526;2022-11-15T03:00:27;4.82;;;2.50;;
52368;SDS011;38298;50.346;3.526;2022-11-15T03:03:08;5.55;;;2.25;;
52368;SDS011;38298;50.346;3.526;2022-11-15T03:05:43;4.68;;;2.28;;
52368;SDS011;38298;50.346;3.526;2022-11-15T03:15:46;7.28;;;2.15;;
52368;SDS011;38298;50.346;3.526;2022-11-15T03:18:19;7.05;;;2.63;;
52368;SDS011;38298;50.346;3.526;2022-11-15T03:20:47;11.80;;;2.47;;
52368;SDS011;38298;50.346;3.526;2022-11-15T03:23:14;10.88;;;2.13;;
52368;SDS011;38298;50.346;3.526;2022-11-15T03:25:41;3.65;;;1.67;;
52368;SDS011;38298;50.346;3.526;2022-11-15T03:28:09;8.75;;;2.20;;
52368;SDS011;38298;50.346;3.526;2022-11-15T03:30:37;5.40;;;2.13;;
52368;SDS011;38298;50.346;3.526;2022-11-15T03:33:04;7.75;;;2.10;;
52368;SDS011;38298;50.346;3.526;2022-11-15T03:35:32;8.43;;;2.58;;
52368;SDS011;38298;50.346;3.526;2022-11-15T03:40:49;5.45;;;1.85;;
52368;SDS011;38298;50.346;3.526;2022-11-15T03:43:25;4.00;;;1.70;;
52368;SDS011;38298;50.346;3.526;2022-11-15T03:46:37;8.82;;;1.73;;
52368;SDS011;38298;50.346;3.526;2022-11-15T03:48:43;8.45;;;1.70;;
52368;SDS011;38298;50.346;3.526;2022-11-15T03:51:12;6.30;;;1.85;;
52368;SDS011;38298;50.346;3.526;2022-11-15T03:53:40;4.90;;;1.80;;
52368;SDS011;38298;50.346;3.526;2022-11-15T03:56:06;9.95;;;1.80;;
52368;SDS011;38298;50.346;3.526;2022-11-15T03:58:32;4.10;;;1.83;;
52368;SDS011;38298;50.346;3.526;2022-11-15T04:00:58;1.88;;;1.60;;
52368;SDS011;38298;50.346;3.526;2022-11-15T04:03:24;4.15;;;1.60;;
52368;SDS011;38298;50.346;3.526;2022-11-15T04:05:50;3.90;;;1.88;;
52368;SDS011;38298;50.346;3.526;2022-11-15T04:08:16;4.93;;;1.48;;
52368;SDS011;38298;50.346;3.526;2022-11-15T04:10:42;8.45;;;1.88;;
52368;SDS011;38298;50.346;3.526;2022-11-15T04:13:08;3.97;;;1.65;;
52368;SDS011;38298;50.346;3.526;2022-11-15T04:15:34;3.50;;;1.55;;
52368;SDS011;38298;50.346;3.526;2022-11-15T04:18:01;6.10;;;2.00;;
52368;SDS011;38298;50.346;3.526;2022-11-15T04:20:28;3.90;;;1.70;;
52368;SDS011;38298;50.346;3.526;2022-11-15T04:23:14;7.13;;;2.10;;
52368;SDS011;38298;50.346;3.526;2022-11-15T04:26:01;8.02;;;2.55;;
52368;SDS011;38298;50.346;3.526;2022-11-15T04:28:27;7.18;;;2.13;;
52368;SDS011;38298;50.346;3.526;2022-11-15T04:30:53;5.45;;;2.60;;
52368;SDS011;38298;50.346;3.526;2022-11-15T04:33:19;4.78;;;2.75;;
52368;SDS011;38298;50.346;3.526;2022-11-15T04:35:45;7.10;;;2.50;;
52368;SDS011;38298;50.346;3.526;2022-11-15T04:38:31;8.18;;;2.45;;
52368;SDS011;38298;50.346;3.526;2022-11-15T04:40:57;4.35;;;2.78;;
52368;SDS011;38298;50.346;3.526;2022-11-15T04:43:23;6.10;;;2.90;;
52368;SDS011;38298;50.346;3.526;2022-11-15T04:45:49;5.60;;;3.38;;
52368;SDS011;38298;50.346;3.526;2022-11-15T04:48:15;7.32;;;3.33;;
52368;SDS011;38298;50.346;3.526;2022-11-15T04:50:41;10.23;;;3.30;;
52368;SDS011;38298;50.346;3.526;2022-11-15T04:53:07;7.15;;;3.55;;
52368;SDS011;38298;50.346;3.526;2022-11-15T04:55:33;9.40;;;3.63;;
52368;SDS011;38298;50.346;3.526;2022-11-15T04:57:59;6.72;;;3.70;;
52368;SDS011;38298;50.346;3.526;2022-11-15T05:00:26;5.57;;;3.90;;
52368;SDS011;38298;50.346;3.526;2022-11-15T05:02:52;4.35;;;3.00;;
52368;SDS011;38298;50.346;3.526;2022-11-15T05:05:37;8.73;;;3.60;;
52368;SDS011;38298;50.346;3.526;2022-11-15T05:08:03;14.75;;;4.35;;
52368;SDS011;38298;50.346;3.526;2022-11-15T05:10:30;9.73;;;3.92;;
52368;SDS011;38298;50.346;3.526;2022-11-15T05:12:55;6.75;;;4.03;;
52368;SDS011;38298;50.346;3.526;2022-11-15T05:15:21;8.35;;;3.72;;
52368;SDS011;38298;50.346;3.526;2022-11-15T05:17:47;6.57;;;3.92;;
52368;SDS011;38298;50.346;3.526;2022-11-15T05:20:13;5.78;;;4.13;;
52368;SDS011;38298;50.346;3.526;2022-11-15T05:22:39;10.23;;;4.20;;
52368;SDS011;38298;50.346;3.526;2022-11-15T05:25:06;9.02;;;4.60;;
52368;SDS011;38298;50.346;3.526;2022-11-15T05:27:32;7.45;;;4.13;;
52368;SDS011;38298;50.346;3.526;2022-11-15T05:29:58;9.25;;;4.25;;
52368;SDS011;38298;50.346;3.526;2022-11-15T05:32:24;6.35;;;3.80;;
52368;SDS011;38298;50.346;3.526;2022-11-15T05:34:51;8.77;;;4.25;;
52368;SDS011;38298;50.346;3.526;2022-11-15T05:37:17;6.10;;;3.85;;
52368;SDS011;38298;50.346;3.526;2022-11-15T05:39:43;7.72;;;3.40;;
52368;SDS011;38298;50.346;3.526;2022-11-15T05:42:10;5.60;;;3.47;;
52368;SDS011;38298;50.346;3.526;2022-11-15T05:44:37;6.97;;;3.25;;
52368;SDS011;38298;50.346;3.526;2022-11-15T05:47:05;9.82;;;3.63;;
52368;SDS011;38298;50.346;3.526;2022-11-15T05:49:32;6.90;;;3.22;;
52368;SDS011;38298;50.346;3.526;2022-11-15T05:52:00;8.43;;;3.80;;
52368;SDS011;38298;50.346;3.526;2022-11-15T05:54:28;9.68;;;3.80;;
52368;SDS011;38298;50.346;3.526;2022-11-15T05:56:54;21.60;;;4.20;;
52368;SDS011;38298;50.346;3.526;2022-11-15T05:59:20;9.02;;;3.67;;
52368;SDS011;38298;50.346;3.526;2022-11-15T06:01:46;8.25;;;3.70;;
52368;SDS011;38298;50.346;3.526;2022-11-15T06:04:13;9.77;;;4.10;;
52368;SDS011;38298;50.346;3.526;2022-11-15T06:06:39;6.43;;;2.88;;
52368;SDS011;38298;50.346;3.526;2022-11-15T06:09:05;6.53;;;3.33;;
52368;SDS011;38298;50.346;3.526;2022-11-15T06:11:30;5.35;;;3.05;;
52368;SDS011;38298;50.346;3.526;2022-11-15T06:13:57;4.95;;;3.00;;
52368;SDS011;38298;50.346;3.526;2022-11-15T06:16:22;6.82;;;3.40;;
52368;SDS011;38298;50.346;3.526;2022-11-15T06:18:48;7.38;;;3.60;;
52368;SDS011;38298;50.346;3.526;2022-11-15T06:21:14;9.65;;;4.00;;
52368;SDS011;38298;50.346;3.526;2022-11-15T06:23:40;6.28;;;3.30;;
52368;SDS011;38298;50.346;3.526;2022-11-15T06:26:06;7.05;;;3.25;;
52368;SDS011;38298;50.346;3.526;2022-11-15T06:28:32;6.45;;;3.28;;
52368;SDS011;38298;50.346;3.526;2022-11-15T06:31:02;10.20;;;3.50;;
52368;SDS011;38298;50.346;3.526;2022-11-15T06:33:29;9.38;;;3.47;;
52368;SDS011;38298;50.346;3.526;2022-11-15T06:35:55;11.65;;;3.10;;
52368;SDS011;38298;50.346;3.526;2022-11-15T06:38:21;6.63;;;3.35;;
52368;SDS011;38298;50.346;3.526;2022-11-15T06:40:47;8.23;;;3.20;;
52368;SDS011;38298;50.346;3.526;2022-11-15T06:43:13;7.20;;;3.35;;
52368;SDS011;38298;50.346;3.526;2022-11-15T06:45:39;3.28;;;2.63;;
52368;SDS011;38298;50.346;3.526;2022-11-15T06:48:05;7.47;;;2.45;;
52368;SDS011;38298;50.346;3.526;2022-11-15T06:50:31;8.48;;;2.70;;
52368;SDS011;38298;50.346;3.526;2022-11-15T06:53:00;7.35;;;2.20;;
52368;SDS011;38298;50.346;3.526;2022-11-15T06:55:26;7.43;;;2.83;;
52368;SDS011;38298;50.346;3.526;2022-11-15T06:57:52;7.43;;;2.75;;
52368;SDS011;38298;50.346;3.526;2022-11-15T07:00:20;4.07;;;1.70;;
52368;SDS011;38298;50.346;3.526;2022-11-15T07:02:46;11.30;;;2.83;;
52368;SDS011;38298;50.346;3.526;2022-11-15T07:05:13;3.53;;;1.60;;
52368;SDS011;38298;50.346;3.526;2022-11-15T07:07:39;5.55;;;2.08;;
52368;SDS011;38298;50.346;3.526;2022-11-15T07:10:05;9.68;;;2.95;;
52368;SDS011;38298;50.346;3.526;2022-11-15T07:12:32;4.03;;;2.20;;
52368;SDS011;38298;50.346;3.526;2022-11-15T07:14:58;6.30;;;2.20;;
52368;SDS011;38298;50.346;3.526;2022-11-15T07:17:24;5.75;;;2.30;;
52368;SDS011;38298;50.346;3.526;2022-11-15T07:19:50;7.15;;;2.22;;
52368;SDS011;38298;50.346;3.526;2022-11-15T07:25:01;4.13;;;2.03;;
52368;SDS011;38298;50.346;3.526;2022-11-15T07:27:27;5.22;;;1.88;;
52368;SDS011;38298;50.346;3.526;2022-11-15T07:29:53;4.78;;;1.77;;
52368;SDS011;38298;50.346;3.526;2022-11-15T07:32:19;7.95;;;2.10;;
52368;SDS011;38298;50.346;3.526;2022-11-15T07:34:45;5.15;;;1.48;;
52368;SDS011;38298;50.346;3.526;2022-11-15T07:37:11;8.25;;;2.15;;
52368;SDS011;38298;50.346;3.526;2022-11-15T07:39:37;7.65;;;1.52;;
52368;SDS011;38298;50.346;3.526;2022-11-15T07:42:03;8.48;;;1.63;;
52368;SDS011;38298;50.346;3.526;2022-11-15T07:44:48;3.00;;;1.58;;
52368;SDS011;38298;50.346;3.526;2022-11-15T07:47:14;4.70;;;1.33;;
52368;SDS011;38298;50.346;3.526;2022-11-15T07:49:43;12.07;;;2.55;;
52368;SDS011;38298;50.346;3.526;2022-11-15T07:52:11;2.67;;;1.00;;
52368;SDS011;38298;50.346;3.526;2022-11-15T07:54:37;6.05;;;1.40;;
52368;SDS011;38298;50.346;3.526;2022-11-15T07:57:03;4.82;;;1.23;;
52368;SDS011;38298;50.346;3.526;2022-11-15T07:59:29;2.60;;;1.10;;
52368;SDS011;38298;50.346;3.526;2022-11-15T08:01:55;10.18;;;1.77;;
52368;SDS011;38298;50.346;3.526;2022-11-15T08:04:21;4.43;;;1.02;;
52368;SDS011;38298;50.346;3.526;2022-11-15T08:06:47;4.43;;;1.45;;
52368;SDS011;38298;50.346;3.526;2022-11-15T08:09:13;1.75;;;1.10;;
52368;SDS011;38298;50.346;3.526;2022-11-15T08:11:39;9.05;;;1.30;;
52368;SDS011;38298;50.346;3.526;2022-11-15T08:14:05;6.00;;;1.10;;
52368;SDS011;38298;50.346;3.526;2022-11-15T08:16:31;3.20;;;1.60;;
52368;SDS011;38298;50.346;3.526;2022-11-15T08:18:57;7.50;;;1.10;;
52368;SDS011;38298;50.346;3.526;2022-11-15T08:21:23;8.02;;;1.73;;
52368;SDS011;38298;50.346;3.526;2022-11-15T08:23:49;4.15;;;1.60;;
52368;SDS011;38298;50.346;3.526;2022-11-15T08:26:16;7.40;;;1.60;;
52368;SDS011;38298;50.346;3.526;2022-11-15T08:28:42;6.85;;;2.00;;
52368;SDS011;38298;50.346;3.526;2022-11-15T08:31:13;6.05;;;2.03;;
52368;SDS011;38298;50.346;3.526;2022-11-15T08:33:39;3.38;;;1.23;;
52368;SDS011;38298;50.346;3.526;2022-11-15T08:36:05;4.15;;;1.40;;
52368;SDS011;38298;50.346;3.526;2022-11-15T08:38:31;2.85;;;1.30;;
52368;SDS011;38298;50.346;3.526;2022-11-15T08:41:02;8.27;;;1.55;;
52368;SDS011;38298;50.346;3.526;2022-11-15T08:43:28;6.03;;;1.50;;
52368;SDS011;38298;50.346;3.526;2022-11-15T08:45:58;6.95;;;1.92;;
52368;SDS011;38298;50.346;3.526;2022-11-15T08:48:24;2.83;;;1.38;;
52368;SDS011;38298;50.346;3.526;2022-11-15T08:50:54;4.13;;;1.10;;
52368;SDS011;38298;50.346;3.526;2022-11-15T08:53:20;7.07;;;1.85;;
52368;SDS011;38298;50.346;3.526;2022-11-15T08:55:46;4.80;;;1.20;;
52368;SDS011;38298;50.346;3.526;2022-11-15T08:58:12;3.70;;;1.40;;
52368;SDS011;38298;50.346;3.526;2022-11-15T09:00:38;7.82;;;1.52;;
52368;SDS011;38298;50.346;3.526;2022-11-15T09:03:04;9.48;;;1.85;;
52368;SDS011;38298;50.346;3.526;2022-11-15T09:05:31;6.70;;;1.52;;
52368;SDS011;38298;50.346;3.526;2022-11-15T09:07:56;5.13;;;1.30;;
52368;SDS011;38298;50.346;3.526;2022-11-15T09:10:23;4.00;;;1.05;;
52368;SDS011;38298;50.346;3.526;2022-11-15T09:12:49;7.70;;;1.85;;
52368;SDS011;38298;50.346;3.526;2022-11-15T09:15:16;6.00;;;1.40;;
52368;SDS011;38298;50.346;3.526;2022-11-15T09:17:42;5.78;;;1.73;;
52368;SDS011;38298;50.346;3.526;2022-11-15T09:20:08;5.10;;;1.40;;
52368;SDS011;38298;50.346;3.526;2022-11-15T09:22:34;6.07;;;1.10;;
52368;SDS011;38298;50.346;3.526;2022-11-15T09:25:01;5.78;;;1.33;;
52368;SDS011;38298;50.346;3.526;2022-11-15T09:27:30;3.50;;;1.20;;
52368;SDS011;38298;50.346;3.526;2022-11-15T09:29:56;8.77;;;1.80;;
52368;SDS011;38298;50.346;3.526;2022-11-15T09:32:22;4.25;;;1.20;;
52368;SDS011;38298;50.346;3.526;2022-11-15T09:34:49;5.72;;;0.98;;
52368;SDS011;38298;50.346;3.526;2022-11-15T09:37:15;7.75;;;2.60;;
52368;SDS011;38298;50.346;3.526;2022-11-15T09:39:41;5.25;;;1.10;;
52368;SDS011;38298;50.346;3.526;2022-11-15T09:44:53;4.63;;;1.00;;
52368;SDS011;38298;50.346;3.526;2022-11-15T09:49:58;4.60;;;1.30;;
52368;SDS011;38298;50.346;3.526;2022-11-15T09:52:25;3.90;;;1.17;;
52368;SDS011;38298;50.346;3.526;2022-11-15T09:54:51;4.35;;;1.13;;
52368;SDS011;38298;50.346;3.526;2022-11-15T10:05:10;6.82;;;1.45;;
52368;SDS011;38298;50.346;3.526;2022-11-15T10:07:46;6.47;;;1.55;;
52368;SDS011;38298;50.346;3.526;2022-11-15T10:10:31;4.50;;;1.48;;
52368;SDS011;38298;50.346;3.526;2022-11-15T10:12:59;3.28;;;1.08;;
52368;SDS011;38298;50.346;3.526;2022-11-15T10:15:25;3.85;;;1.30;;
52368;SDS011;38298;50.346;3.526;2022-11-15T10:20:21;3.85;;;1.13;;
52368;SDS011;38298;50.346;3.526;2022-11-15T10:22:51;4.10;;;1.23;;
52368;SDS011;38298;50.346;3.526;2022-11-15T10:25:22;6.78;;;1.33;;
52368;SDS011;38298;50.346;3.526;2022-11-15T10:30:32;3.33;;;1.65;;
52368;SDS011;38298;50.346;3.526;2022-11-15T10:32:58;4.40;;;1.10;;
52368;SDS011;38298;50.346;3.526;2022-11-15T10:35:34;6.88;;;1.58;;
52368;SDS011;38298;50.346;3.526;2022-11-15T10:38:07;7.25;;;1.55;;
52368;SDS011;38298;50.346;3.526;2022-11-15T10:40:33;10.07;;;1.70;;
52368;SDS011;38298;50.346;3.526;2022-11-15T10:45:35;7.85;;;1.50;;
52368;SDS011;38298;50.346;3.526;2022-11-15T10:50:40;10.07;;;1.85;;
52368;SDS011;38298;50.346;3.526;2022-11-15T10:55:52;2.22;;;1.48;;
52368;SDS011;38298;50.346;3.526;2022-11-15T10:58:20;6.63;;;1.80;;
52368;SDS011;38298;50.346;3.526;2022-11-15T11:00:47;3.38;;;1.17;;
52368;SDS011;38298;50.346;3.526;2022-11-15T11:03:27;4.57;;;1.63;;
52368;SDS011;38298;50.346;3.526;2022-11-15T11:06:27;3.92;;;2.03;;
52368;SDS011;38298;50.346;3.526;2022-11-15T11:08:54;7.70;;;1.65;;
52368;SDS011;38298;50.346;3.526;2022-11-15T11:11:20;5.13;;;1.50;;
52368;SDS011;38298;50.346;3.526;2022-11-15T11:13:46;2.95;;;1.52;;
52368;SDS011;38298;50.346;3.526;2022-11-15T11:21:25;10.55;;;1.50;;
52368;SDS011;38298;50.346;3.526;2022-11-15T11:23:54;6.00;;;1.30;;
52368;SDS011;38298;50.346;3.526;2022-11-15T11:31:56;3.58;;;1.45;;
52368;SDS011;38298;50.346;3.526;2022-11-15T11:39:54;1.98;;;1.30;;
52368;SDS011;38298;50.346;3.526;2022-11-15T11:44:55;6.00;;;1.35;;
52368;SDS011;38298;50.346;3.526;2022-11-15T11:47:24;4.43;;;1.52;;
52368;SDS011;38298;50.346;3.526;2022-11-15T11:49:56;3.85;;;1.38;;
52368;SDS011;38298;50.346;3.526;2022-11-15T11:52:24;3.60;;;1.30;;
52368;SDS011;38298;50.346;3.526;2022-11-15T11:59:55;2.05;;;1.17;;
52368;SDS011;38298;50.346;3.526;2022-11-15T12:02:27;3.45;;;1.30;;
52368;SDS011;38298;50.346;3.526;2022-11-15T12:04:56;2.97;;;1.30;;
52368;SDS011;38298;50.346;3.526;2022-11-15T12:07:25;4.50;;;1.25;;
52368;SDS011;38298;50.346;3.526;2022-11-15T12:09:58;6.78;;;1.20;;
52368;SDS011;38298;50.346;3.526;2022-11-15T12:12:27;1.80;;;1.38;;
52368;SDS011;38298;50.346;3.526;2022-11-15T12:15:03;1.38;;;1.20;;
52368;SDS011;38298;50.346;3.526;2022-11-15T12:17:30;2.90;;;1.42;;
52368;SDS011;38298;50.346;3.526;2022-11-15T12:19:57;3.30;;;1.60;;
52368;SDS011;38298;50.346;3.526;2022-11-15T12:22:27;5.47;;;1.30;;
52368;SDS011;38298;50.346;3.526;2022-11-15T12:29:50;9.07;;;1.15;;
52368;SDS011;38298;50.346;3.526;2022-11-15T12:32:31;3.22;;;1.20;;
52368;SDS011;38298;50.346;3.526;2022-11-15T12:45:01;3.38;;;1.10;;
52368;SDS011;38298;50.346;3.526;2022-11-15T12:47:27;1.25;;;1.15;;
52368;SDS011;38298;50.346;3.526;2022-11-15T12:49:53;2.80;;;1.20;;
52368;SDS011;38298;50.346;3.526;2022-11-15T12:52:19;4.18;;;1.30;;
52368;SDS011;38298;50.346;3.526;2022-11-15T12:54:50;1.10;;;0.98;;
52368;SDS011;38298;50.346;3.526;2022-11-15T13:17:38;6.22;;;1.50;;
52368;SDS011;38298;50.346;3.526;2022-11-15T13:25:26;6.25;;;1.23;;
52368;SDS011;38298;50.346;3.526;2022-11-15T13:27:53;2.45;;;1.30;;
52368;SDS011;38298;50.346;3.526;2022-11-15T13:30:23;2.55;;;1.40;;
52368;SDS011;38298;50.346;3.526;2022-11-15T13:32:49;5.05;;;1.65;;
52368;SDS011;38298;50.346;3.526;2022-11-15T13:35:24;2.20;;;1.40;;
52368;SDS011;38298;50.346;3.526;2022-11-15T13:37:50;6.13;;;1.52;;
52368;SDS011;38298;50.346;3.526;2022-11-15T13:40:27;2.50;;;1.60;;
52368;SDS011;38298;50.346;3.526;2022-11-15T13:42:55;2.80;;;1.70;;
52368;SDS011;38298;50.346;3.526;2022-11-15T13:45:21;2.20;;;1.60;;
52368;SDS011;38298;50.346;3.526;2022-11-15T13:47:51;3.88;;;1.70;;
52368;SDS011;38298;50.346;3.526;2022-11-15T13:50:17;3.58;;;1.60;;
52368;SDS011;38298;50.346;3.526;2022-11-15T13:52:46;2.80;;;1.67;;
52368;SDS011;38298;50.346;3.526;2022-11-15T13:55:15;6.85;;;1.63;;
52368;SDS011;38298;50.346;3.526;2022-11-15T13:57:43;3.60;;;1.73;;
52368;SDS011;38298;50.346;3.526;2022-11-15T14:02:55;3.65;;;1.85;;
52368;SDS011;38298;50.346;3.526;2022-11-15T14:05:22;6.38;;;1.88;;
52368;SDS011;38298;50.346;3.526;2022-11-15T14:07:56;2.45;;;2.10;;
52368;SDS011;38298;50.346;3.526;2022-11-15T14:10:34;2.75;;;2.10;;
52368;SDS011;38298;50.346;3.526;2022-11-15T14:13:01;3.53;;;1.92;;
52368;SDS011;38298;50.346;3.526;2022-11-15T14:15:32;3.80;;;1.90;;
52368;SDS011;38298;50.346;3.526;2022-11-15T14:17:59;2.10;;;1.90;;
52368;SDS011;38298;50.346;3.526;2022-11-15T14:22:53;3.00;;;2.00;;
52368;SDS011;38298;50.346;3.526;2022-11-15T14:25:21;3.95;;;2.40;;
52368;SDS011;38298;50.346;3.526;2022-11-15T14:30:32;2.75;;;2.00;;
52368;SDS011;38298;50.346;3.526;2022-11-15T14:32:58;4.63;;;1.95;;
52368;SDS011;38298;50.346;3.526;2022-11-15T14:35:24;3.83;;;2.38;;
52368;SDS011;38298;50.346;3.526;2022-11-15T14:37:50;3.03;;;1.80;;
52368;SDS011;38298;50.346;3.526;2022-11-15T14:40:17;3.80;;;1.83;;
52368;SDS011;38298;50.346;3.526;2022-11-15T14:42:44;1.98;;;1.73;;
52368;SDS011;38298;50.346;3.526;2022-11-15T14:45:18;4.82;;;2.00;;
52368;SDS011;38298;50.346;3.526;2022-11-15T14:47:44;2.83;;;1.90;;
52368;SDS011;38298;50.346;3.526;2022-11-15T14:50:15;2.75;;;2.05;;
52368;SDS011;38298;50.346;3.526;2022-11-15T14:52:41;3.22;;;2.00;;
52368;SDS011;38298;50.346;3.526;2022-11-15T14:57:43;4.95;;;2.10;;
52368;SDS011;38298;50.346;3.526;2022-11-15T15:00:09;7.28;;;2.30;;
52368;SDS011;38298;50.346;3.526;2022-11-15T15:02:35;2.58;;;1.83;;
52368;SDS011;38298;50.346;3.526;2022-11-15T15:05:10;4.25;;;1.73;;
52368;SDS011;38298;50.346;3.526;2022-11-15T15:07:38;3.58;;;1.70;;
52368;SDS011;38298;50.346;3.526;2022-11-15T15:10:04;4.57;;;2.22;;
52368;SDS011;38298;50.346;3.526;2022-11-15T15:12:30;3.17;;;2.30;;
52368;SDS011;38298;50.346;3.526;2022-11-15T15:14:56;4.50;;;2.17;;
52368;SDS011;38298;50.346;3.526;2022-11-15T15:17:23;4.45;;;2.00;;
52368;SDS011;38298;50.346;3.526;2022-11-15T15:19:49;3.78;;;1.77;;
52368;SDS011;38298;50.346;3.526;2022-11-15T15:22:15;4.25;;;1.90;;
52368;SDS011;38298;50.346;3.526;2022-11-15T15:24:43;5.47;;;1.88;;
52368;SDS011;38298;50.346;3.526;2022-11-15T15:27:09;4.10;;;2.05;;
52368;SDS011;38298;50.346;3.526;2022-11-15T15:29:35;2.25;;;2.03;;
52368;SDS011;38298;50.346;3.526;2022-11-15T15:32:01;4.32;;;1.63;;
52368;SDS011;38298;50.346;3.526;2022-11-15T15:34:27;3.13;;;1.92;;
52368;SDS011;38298;50.346;3.526;2022-11-15T15:37:12;4.50;;;2.10;;
52368;SDS011;38298;50.346;3.526;2022-11-15T15:39:44;2.30;;;1.80;;
52368;SDS011;38298;50.346;3.526;2022-11-15T15:42:10;4.07;;;2.47;;
52368;SDS011;38298;50.346;3.526;2022-11-15T15:44:36;4.50;;;2.20;;
52368;SDS011;38298;50.346;3.526;2022-11-15T15:47:06;5.85;;;2.47;;
52368;SDS011;38298;50.346;3.526;2022-11-15T15:49:35;4.38;;;2.70;;
52368;SDS011;38298;50.346;3.526;2022-11-15T15:52:01;3.10;;;2.10;;
52368;SDS011;38298;50.346;3.526;2022-11-15T15:54:27;2.70;;;1.92;;
52368;SDS011;38298;50.346;3.526;2022-11-15T15:56:53;2.35;;;1.77;;
52368;SDS011;38298;50.346;3.526;2022-11-15T15:59:19;2.78;;;1.80;;
52368;SDS011;38298;50.346;3.526;2022-11-15T16:01:45;2.40;;;2.20;;
52368;SDS011;38298;50.346;3.526;2022-11-15T16:04:11;4.05;;;1.77;;
52368;SDS011;38298;50.346;3.526;2022-11-15T16:06:40;2.83;;;2.15;;
52368;SDS011;38298;50.346;3.526;2022-11-15T16:09:16;2.67;;;2.17;;
52368;SDS011;38298;50.346;3.526;2022-11-15T16:11:43;2.97;;;1.95;;
52368;SDS011;38298;50.346;3.526;2022-11-15T16:14:09;4.70;;;2.20;;
52368;SDS011;38298;50.346;3.526;2022-11-15T16:16:35;4.00;;;2.50;;
52368;SDS011;38298;50.346;3.526;2022-11-15T16:19:02;5.35;;;2.50;;
52368;SDS011;38298;50.346;3.526;2022-11-15T16:21:28;5.70;;;2.47;;
52368;SDS011;38298;50.346;3.526;2022-11-15T16:23:54;3.88;;;2.70;;
52368;SDS011;38298;50.346;3.526;2022-11-15T16:26:24;5.78;;;3.30;;
52368;SDS011;38298;50.346;3.526;2022-11-15T16:28:50;6.38;;;3.50;;
52368;SDS011;38298;50.346;3.526;2022-11-15T16:31:17;7.93;;;3.78;;
52368;SDS011;38298;50.346;3.526;2022-11-15T16:33:45;8.98;;;3.85;;
52368;SDS011;38298;50.346;3.526;2022-11-15T16:36:21;9.02;;;3.92;;
52368;SDS011;38298;50.346;3.526;2022-11-15T16:38:48;8.30;;;2.90;;
52368;SDS011;38298;50.346;3.526;2022-11-15T16:41:14;7.47;;;3.17;;
52368;SDS011;38298;50.346;3.526;2022-11-15T16:43:43;6.15;;;3.03;;
52368;SDS011;38298;50.346;3.526;2022-11-15T16:46:13;4.78;;;2.90;;
52368;SDS011;38298;50.346;3.526;2022-11-15T16:51:05;4.50;;;2.20;;
52368;SDS011;38298;50.346;3.526;2022-11-15T16:53:31;5.07;;;2.30;;
52368;SDS011;38298;50.346;3.526;2022-11-15T16:55:57;9.15;;;2.58;;
52368;SDS011;38298;50.346;3.526;2022-11-15T16:58:23;4.55;;;2.70;;
52368;SDS011;38298;50.346;3.526;2022-11-15T17:00:50;3.53;;;2.30;;
52368;SDS011;38298;50.346;3.526;2022-11-15T17:03:17;3.80;;;2.70;;